Time;durP1;ratioP1;P1;durP2;ratioP2;P2;SDS_P1;SDS_P2;PMS_P1;PMS_P2;Temp;Humidity;BMP_temperature;BMP_pressure;BME280_temperature;BME280_humidity;BME280_pressure;Samples;Min_cycle;Max_cycle;Signal;HPM_P1;HPM_P2
2021/12/26 00:02:18;;;;;;;18.20;4.40;;;11.40;79.70;;;;;;5099164;28;20020;-58
2021/12/26 00:04:43;;;;;;;21.17;4.40;;;11.40;79.70;;;;;;5100668;28;20035;-58
2021/12/26 00:07:10;;;;;;;25.10;4.93;;;11.40;79.70;;;;;;5100733;28;20074;-55
2021/12/26 00:09:35;;;;;;;23.05;3.90;;;11.30;79.60;;;;;;5100127;28;20024;-58
2021/12/26 00:12:01;;;;;;;24.33;5.30;;;11.30;79.60;;;;;;5100162;28;20464;-58
2021/12/26 00:14:27;;;;;;;18.88;4.75;;;11.30;79.50;;;;;;5100043;28;20035;-58
2021/12/26 00:16:53;;;;;;;23.13;4.50;;;11.30;79.60;;;;;;5098764;28;20028;-56
2021/12/26 00:19:19;;;;;;;27.35;4.80;;;11.30;79.70;;;;;;5098689;28;20572;-58
2021/12/26 00:21:45;;;;;;;18.77;3.80;;;11.20;79.60;;;;;;5100145;28;20475;-58
2021/12/26 00:24:11;;;;;;;28.80;5.35;;;11.20;79.70;;;;;;5099932;28;20028;-58
2021/12/26 00:26:37;;;;;;;25.55;4.68;;;11.20;79.60;;;;;;5099675;28;20016;-57
2021/12/26 00:29:04;;;;;;;20.60;4.75;;;11.20;79.70;;;;;;5099821;28;20043;-58
2021/12/26 00:31:30;;;;;;;26.73;5.45;;;11.20;79.70;;;;;;5099720;28;20028;-56
2021/12/26 00:33:56;;;;;;;30.58;5.03;;;11.20;79.60;;;;;;5099810;28;20028;-56
2021/12/26 00:36:22;;;;;;;28.88;5.82;;;11.20;80.00;;;;;;5099614;28;20021;-58
2021/12/26 00:38:48;;;;;;;30.05;6.55;;;11.30;80.00;;;;;;5099829;28;20432;-58
2021/12/26 00:41:14;;;;;;;24.73;5.18;;;11.30;80.10;;;;;;5099753;28;20056;-58
2021/12/26 00:43:40;;;;;;;27.75;5.90;;;11.30;80.10;;;;;;5099740;28;20032;-56
2021/12/26 00:46:06;;;;;;;31.95;5.68;;;11.30;80.00;;;;;;5099691;28;20080;-56
2021/12/26 00:48:32;;;;;;;30.55;5.65;;;11.30;80.00;;;;;;5099331;28;20032;-58
2021/12/26 00:50:58;;;;;;;29.95;5.22;;;11.40;79.90;;;;;;5099438;28;20046;-57
2021/12/26 00:53:24;;;;;;;28.85;5.82;;;11.40;80.00;;;;;;5099315;28;20028;-58
2021/12/26 00:55:51;;;;;;;28.27;6.50;;;11.40;79.70;;;;;;5099507;28;20020;-58
2021/12/26 00:58:18;;;;;;;30.90;5.78;;;11.40;79.70;;;;;;5099146;28;20020;-57
2021/12/26 01:00:46;;;;;;;27.92;6.25;;;11.40;79.70;;;;;;5099443;28;20030;-58
2021/12/26 01:03:14;;;;;;;31.85;5.15;;;11.50;79.60;;;;;;5099132;28;20434;-56
2021/12/26 01:05:45;;;;;;;27.85;5.88;;;11.40;79.70;;;;;;5099418;28;20016;-57
2021/12/26 01:08:14;;;;;;;23.35;5.00;;;11.40;79.80;;;;;;5099479;28;20026;-56
2021/12/26 01:10:44;;;;;;;26.77;4.53;;;11.40;79.70;;;;;;5099110;28;20046;-57
2021/12/26 01:13:23;;;;;;;25.40;5.20;;;11.50;79.70;;;;;;5098914;28;20103;-58
2021/12/26 01:15:52;;;;;;;30.60;5.47;;;11.40;79.80;;;;;;5098928;28;20073;-58
2021/12/26 01:18:18;;;;;;;25.65;4.85;;;11.40;79.70;;;;;;5099050;28;20031;-58
2021/12/26 01:23:13;;;;;;;23.77;5.03;;;11.40;79.70;;;;;;5098929;28;20016;-58
2021/12/26 01:25:39;;;;;;;32.08;5.25;;;11.40;79.70;;;;;;5098693;28;20024;-57
2021/12/26 01:28:06;;;;;;;27.52;5.00;;;11.50;79.70;;;;;;5098678;28;20030;-58
2021/12/26 01:30:33;;;;;;;29.88;6.07;;;11.40;79.60;;;;;;5098758;28;20027;-58
2021/12/26 01:32:58;;;;;;;30.80;6.32;;;11.40;79.70;;;;;;5099039;28;20474;-58
2021/12/26 01:35:24;;;;;;;36.80;5.32;;;11.40;79.70;;;;;;5098538;28;20016;-58
2021/12/26 01:37:50;;;;;;;28.58;5.78;;;11.40;79.60;;;;;;5098563;28;20028;-58
2021/12/26 01:40:16;;;;;;;30.13;5.85;;;11.40;79.70;;;;;;5098475;28;20024;-58
2021/12/26 01:42:42;;;;;;;30.85;5.30;;;11.40;79.80;;;;;;5098452;28;20528;-57
2021/12/26 01:45:11;;;;;;;29.17;5.78;;;11.40;79.70;;;;;;5098303;28;20021;-55
2021/12/26 01:47:37;;;;;;;24.40;4.95;;;11.40;79.60;;;;;;5098379;28;20035;-58
2021/12/26 01:50:04;;;;;;;32.92;5.95;;;11.40;79.70;;;;;;5098358;28;20024;-54
2021/12/26 01:52:30;;;;;;;31.88;5.43;;;11.40;79.70;;;;;;5098574;28;20024;-58
2021/12/26 01:55:21;;;;;;;26.30;5.15;;;11.30;79.80;;;;;;5098610;28;20103;-57
2021/12/26 01:57:54;;;;;;;21.55;4.40;;;11.40;79.90;;;;;;5098077;28;20029;-58
2021/12/26 02:00:20;;;;;;;30.67;5.22;;;11.40;79.80;;;;;;5098094;28;20028;-58
2021/12/26 02:02:47;;;;;;;32.97;5.63;;;11.40;79.70;;;;;;5098322;28;20032;-58
2021/12/26 02:05:13;;;;;;;29.50;5.07;;;11.30;79.80;;;;;;5098035;28;20023;-58
2021/12/26 02:07:39;;;;;;;30.50;5.53;;;11.30;79.70;;;;;;5098187;28;20557;-56
2021/12/26 02:10:06;;;;;;;28.23;5.18;;;11.40;79.70;;;;;;5098052;28;20027;-55
2021/12/26 02:12:31;;;;;;;25.77;6.25;;;11.40;79.70;;;;;;5098098;28;20476;-58
2021/12/26 02:14:57;;;;;;;23.67;5.25;;;11.30;80.00;;;;;;5098064;28;20522;-58
2021/12/26 02:17:23;;;;;;;26.15;4.43;;;11.30;79.40;;;;;;5098141;28;20024;-56
2021/12/26 02:19:51;;;;;;;34.72;5.70;;;11.30;79.50;;;;;;5097708;28;20066;-58
2021/12/26 02:22:24;;;;;;;26.80;4.97;;;11.30;79.50;;;;;;5097704;28;20557;-57
2021/12/26 02:27:32;;;;;;;24.00;5.50;;;11.20;79.40;;;;;;5097548;28;20024;-58
2021/12/26 02:30:04;;;;;;;28.63;4.82;;;11.20;79.40;;;;;;5097406;28;20055;-54
2021/12/26 02:32:30;;;;;;;27.15;5.07;;;11.10;79.30;;;;;;5097814;28;20024;-56
2021/12/26 02:34:57;;;;;;;25.27;5.05;;;11.10;79.30;;;;;;5097837;28;20027;-58
2021/12/26 02:37:23;;;;;;;29.77;7.13;;;11.00;79.40;;;;;;5097805;28;20044;-57
2021/12/26 02:39:49;;;;;;;31.17;5.63;;;11.00;79.60;;;;;;5097640;28;20027;-56
2021/12/26 02:42:21;;;;;;;28.67;6.13;;;11.00;79.60;;;;;;5097743;28;20483;-58
2021/12/26 02:44:47;;;;;;;33.42;6.93;;;11.00;79.80;;;;;;5097965;28;20016;-57
2021/12/26 02:47:14;;;;;;;28.33;5.55;;;11.00;80.00;;;;;;5097443;28;20024;-58
2021/12/26 02:49:40;;;;;;;29.02;5.30;;;11.10;80.00;;;;;;5097388;28;20511;-57
2021/12/26 02:52:06;;;;;;;24.83;6.03;;;11.10;80.00;;;;;;5097433;28;20020;-57
2021/12/26 02:54:32;;;;;;;25.75;4.78;;;11.10;80.10;;;;;;5097839;28;20034;-58
2021/12/26 02:56:58;;;;;;;27.83;6.03;;;11.10;79.70;;;;;;5097423;28;20031;-58
2021/12/26 02:59:24;;;;;;;25.15;3.67;;;11.10;79.70;;;;;;5097398;28;20024;-58
2021/12/26 03:01:50;;;;;;;25.00;4.50;;;11.10;79.60;;;;;;5097279;28;20029;-57
2021/12/26 03:04:15;;;;;;;25.90;4.72;;;11.00;79.50;;;;;;5097442;28;20051;-57
2021/12/26 03:07:01;;;;;;;25.95;5.05;;;11.00;79.60;;;;;;5097345;28;20045;-58
2021/12/26 03:09:30;;;;;;;26.52;4.88;;;11.00;79.70;;;;;;5097351;28;20028;-57
2021/12/26 03:11:56;;;;;;;23.60;4.47;;;10.90;79.80;;;;;;5097612;28;20479;-58
2021/12/26 03:14:22;;;;;;;24.88;4.45;;;11.00;79.70;;;;;;5097713;28;20016;-56
2021/12/26 03:16:50;;;;;;;25.15;4.63;;;11.00;79.90;;;;;;5097331;28;20024;-55
2021/12/26 03:19:16;;;;;;;32.72;5.43;;;11.00;79.80;;;;;;5097175;28;20489;-58
2021/12/26 03:21:42;;;;;;;26.40;4.55;;;11.00;79.90;;;;;;5097197;28;20024;-58
2021/12/26 03:24:08;;;;;;;33.20;5.03;;;11.00;79.90;;;;;;5096991;28;20461;-58
2021/12/26 03:26:34;;;;;;;30.00;5.07;;;11.00;79.80;;;;;;5097114;28;20036;-58
2021/12/26 03:29:00;;;;;;;24.98;4.65;;;11.00;79.70;;;;;;5097433;28;20025;-58
2021/12/26 03:31:25;;;;;;;32.83;4.63;;;11.00;79.60;;;;;;5097249;28;20103;-56
2021/12/26 03:33:51;;;;;;;25.90;5.07;;;11.00;79.80;;;;;;5097275;28;20020;-56
2021/12/26 03:36:17;;;;;;;26.50;5.05;;;11.00;79.90;;;;;;5098828;28;20016;-56
2021/12/26 03:38:43;;;;;;;30.05;6.60;;;11.00;79.90;;;;;;5101309;28;20530;-58
2021/12/26 03:41:09;;;;;;;27.80;5.43;;;11.00;80.10;;;;;;5100977;28;20061;-56
2021/12/26 03:43:35;;;;;;;31.63;5.45;;;11.00;80.00;;;;;;5100762;28;20044;-55
2021/12/26 03:46:01;;;;;;;29.08;6.40;;;11.10;80.00;;;;;;5100648;28;20027;-55
2021/12/26 03:48:27;;;;;;;25.92;5.25;;;11.10;80.00;;;;;;5100534;28;20023;-59
2021/12/26 03:50:55;;;;;;;26.20;5.57;;;11.10;80.10;;;;;;5100791;28;20027;-58
2021/12/26 03:53:22;;;;;;;31.45;6.43;;;11.10;80.10;;;;;;5100608;28;20028;-58
2021/12/26 03:55:48;;;;;;;37.63;6.53;;;11.20;80.10;;;;;;5100599;28;20024;-52
2021/12/26 03:58:14;;;;;;;36.88;6.18;;;11.20;80.30;;;;;;5099820;28;20438;-58
2021/12/26 04:00:41;;;;;;;29.70;5.68;;;11.20;80.10;;;;;;5100077;28;20038;-56
2021/12/26 04:03:07;;;;;;;27.13;4.55;;;11.20;79.90;;;;;;5100110;28;20499;-58
2021/12/26 04:05:34;;;;;;;26.35;5.03;;;11.20;80.00;;;;;;5100684;28;20074;-58
2021/12/26 04:08:00;;;;;;;27.38;5.18;;;11.30;80.00;;;;;;5100009;28;20024;-59
2021/12/26 04:10:27;;;;;;;26.10;4.47;;;11.30;80.00;;;;;;5100274;28;20103;-57
2021/12/26 04:12:54;;;;;;;27.08;4.97;;;11.30;79.90;;;;;;5100134;28;20413;-56
2021/12/26 04:15:22;;;;;;;26.25;5.18;;;11.30;80.00;;;;;;5099973;28;20032;-59
2021/12/26 04:17:51;;;;;;;26.27;5.18;;;11.30;80.00;;;;;;5100085;28;20020;-58
2021/12/26 04:20:17;;;;;;;24.30;5.00;;;11.30;80.10;;;;;;5099848;28;20056;-58
2021/12/26 04:22:43;;;;;;;29.60;5.50;;;11.30;80.20;;;;;;5100116;28;20043;-58
2021/12/26 04:25:10;;;;;;;30.92;5.15;;;11.30;80.30;;;;;;5100185;28;20024;-58
2021/12/26 04:27:36;;;;;;;28.83;4.80;;;11.30;80.20;;;;;;5100070;28;20498;-56
2021/12/26 04:30:09;;;;;;;27.88;5.40;;;11.30;80.20;;;;;;5099822;28;20017;-58
2021/12/26 04:32:35;;;;;;;27.17;4.78;;;11.20;80.10;;;;;;5099906;28;20035;-56
2021/12/26 04:35:01;;;;;;;26.50;4.45;;;11.30;80.00;;;;;;5099848;28;20024;-56
2021/12/26 04:37:27;;;;;;;24.25;5.22;;;11.30;80.00;;;;;;5099676;28;20016;-58
2021/12/26 04:39:53;;;;;;;29.45;4.45;;;11.30;80.00;;;;;;5099955;28;20035;-55
2021/12/26 04:42:19;;;;;;;29.13;5.35;;;11.30;79.90;;;;;;5099984;28;20024;-58
2021/12/26 04:44:45;;;;;;;20.83;4.78;;;11.30;79.70;;;;;;5099753;28;20035;-58
2021/12/26 04:47:10;;;;;;;26.88;4.65;;;11.30;79.60;;;;;;5098813;28;20028;-58
2021/12/26 04:49:36;;;;;;;27.40;5.13;;;11.30;79.70;;;;;;5099770;28;20020;-58
2021/12/26 04:52:03;;;;;;;22.02;4.07;;;11.30;79.70;;;;;;5099501;28;20027;-58
2021/12/26 04:54:29;;;;;;;32.25;5.70;;;11.30;79.90;;;;;;5099453;28;20016;-58
2021/12/26 04:56:54;;;;;;;36.40;6.55;;;11.30;79.80;;;;;;5099210;28;20107;-58
2021/12/26 04:59:20;;;;;;;32.67;6.05;;;11.30;79.80;;;;;;5099404;28;20020;-59
2021/12/26 05:01:46;;;;;;;23.45;4.55;;;11.30;79.90;;;;;;5099052;28;20479;-59
2021/12/26 05:04:12;;;;;;;31.27;6.18;;;11.30;79.90;;;;;;5099332;28;20073;-58
2021/12/26 05:06:38;;;;;;;24.13;4.20;;;11.30;80.20;;;;;;5099423;28;20066;-58
2021/12/26 05:09:05;;;;;;;24.48;4.47;;;11.30;80.00;;;;;;5099128;28;20039;-55
2021/12/26 05:11:32;;;;;;;27.30;5.07;;;11.40;80.10;;;;;;5098779;28;20395;-56
2021/12/26 05:13:58;;;;;;;33.75;5.40;;;11.40;79.90;;;;;;5098846;28;20467;-58
2021/12/26 05:16:24;;;;;;;34.25;4.82;;;11.30;80.10;;;;;;5098906;28;20099;-58
2021/12/26 05:18:50;;;;;;;24.85;4.80;;;11.40;80.10;;;;;;5098624;28;20529;-53
2021/12/26 05:21:15;;;;;;;33.55;5.53;;;11.40;79.90;;;;;;5099009;28;20028;-58
2021/12/26 05:23:41;;;;;;;27.23;4.45;;;11.40;80.00;;;;;;5099468;28;20020;-57
2021/12/26 05:26:07;;;;;;;31.63;4.97;;;11.40;80.10;;;;;;5099091;28;20058;-58
2021/12/26 05:28:34;;;;;;;29.63;4.65;;;11.40;79.90;;;;;;5098912;28;20028;-58
2021/12/26 05:31:00;;;;;;;28.42;4.55;;;11.40;79.90;;;;;;5098731;28;20100;-57
2021/12/26 05:33:26;;;;;;;32.13;4.72;;;11.40;79.80;;;;;;5099300;28;20048;-57
2021/12/26 05:35:52;;;;;;;30.23;4.78;;;11.40;79.70;;;;;;5098916;28;20070;-53
2021/12/26 05:38:17;;;;;;;27.52;4.75;;;11.40;79.50;;;;;;5099016;28;20107;-55
2021/12/26 05:40:43;;;;;;;21.55;3.78;;;11.40;79.60;;;;;;5099040;28;20030;-56
2021/12/26 05:43:09;;;;;;;26.48;4.25;;;11.30;79.60;;;;;;5098900;28;20031;-57
2021/12/26 05:45:35;;;;;;;31.92;4.47;;;11.30;79.60;;;;;;5098684;28;20012;-55
2021/12/26 05:48:01;;;;;;;28.50;5.00;;;11.30;79.60;;;;;;5098889;28;20036;-57
2021/12/26 05:50:27;;;;;;;28.83;4.75;;;11.20;79.60;;;;;;5098682;28;20024;-58
2021/12/26 05:52:53;;;;;;;24.20;4.63;;;11.20;79.70;;;;;;5098511;28;20023;-58
2021/12/26 05:55:18;;;;;;;31.20;5.60;;;11.20;79.60;;;;;;5098394;28;20483;-57
2021/12/26 05:57:44;;;;;;;31.77;5.78;;;11.20;79.70;;;;;;5098674;28;20025;-56
2021/12/26 06:00:14;;;;;;;31.17;4.93;;;11.20;79.60;;;;;;5097375;28;20077;-57
2021/12/26 06:02:40;;;;;;;29.00;5.05;;;11.20;79.70;;;;;;5098534;28;20027;-56
2021/12/26 06:05:06;;;;;;;28.63;5.28;;;11.20;79.60;;;;;;5098298;28;20095;-58
2021/12/26 06:07:32;;;;;;;29.83;4.88;;;11.20;79.90;;;;;;5098563;28;20084;-57
2021/12/26 06:09:58;;;;;;;27.55;5.13;;;11.10;79.90;;;;;;5098383;28;20103;-56
2021/12/26 06:12:24;;;;;;;27.70;4.93;;;11.20;79.90;;;;;;5098027;28;20059;-58
2021/12/26 06:14:49;;;;;;;25.63;5.35;;;11.20;80.00;;;;;;5098397;28;20032;-58
2021/12/26 06:17:15;;;;;;;31.10;4.90;;;11.30;79.90;;;;;;5098619;28;20027;-55
2021/12/26 06:19:41;;;;;;;23.13;4.10;;;11.20;80.00;;;;;;5098188;28;20112;-57
2021/12/26 06:22:07;;;;;;;27.20;5.20;;;11.20;80.00;;;;;;5097977;28;20024;-57
2021/12/26 06:24:34;;;;;;;31.92;4.75;;;11.30;80.00;;;;;;5098105;28;20042;-57
2021/12/26 06:27:00;;;;;;;24.00;4.70;;;11.30;80.50;;;;;;5098215;28;20032;-57
2021/12/26 06:29:26;;;;;;;24.50;4.68;;;11.30;80.00;;;;;;5097938;28;20024;-58
2021/12/26 06:31:51;;;;;;;24.75;5.28;;;11.30;80.10;;;;;;5098110;28;20065;-58
2021/12/26 06:34:17;;;;;;;32.58;6.03;;;11.30;80.20;;;;;;5098351;28;20016;-56
2021/12/26 06:36:43;;;;;;;23.80;3.95;;;11.40;80.20;;;;;;5097923;28;20051;-56
2021/12/26 06:39:09;;;;;;;27.13;5.15;;;11.40;80.00;;;;;;5097895;28;20020;-57
2021/12/26 06:41:38;;;;;;;28.88;5.82;;;11.40;79.90;;;;;;5098518;28;20024;-54
2021/12/26 06:44:07;;;;;;;22.42;4.22;;;11.50;79.70;;;;;;5097716;28;20028;-57
2021/12/26 06:46:34;;;;;;;28.55;5.43;;;11.50;80.00;;;;;;5097782;28;20027;-57
2021/12/26 06:48:59;;;;;;;26.70;5.65;;;11.40;79.80;;;;;;5097764;28;20026;-58
2021/12/26 06:51:25;;;;;;;29.25;5.47;;;11.40;79.70;;;;;;5097716;28;20095;-58
2021/12/26 06:53:51;;;;;;;26.27;5.03;;;11.50;79.70;;;;;;5097904;28;20430;-58
2021/12/26 06:56:17;;;;;;;33.50;6.50;;;11.50;79.70;;;;;;5097916;28;20391;-58
2021/12/26 06:58:43;;;;;;;28.77;5.07;;;11.50;80.00;;;;;;5097615;28;20028;-57
2021/12/26 07:01:10;;;;;;;34.47;5.53;;;11.50;80.00;;;;;;5097681;28;20024;-56
2021/12/26 07:03:36;;;;;;;28.88;5.35;;;11.40;79.90;;;;;;5097846;28;20050;-57
2021/12/26 07:06:02;;;;;;;23.63;4.47;;;11.40;80.00;;;;;;5097773;28;20028;-58
2021/12/26 07:08:28;;;;;;;27.70;4.30;;;11.50;79.90;;;;;;5097753;28;20590;-55
2021/12/26 07:10:54;;;;;;;33.10;5.40;;;11.40;79.90;;;;;;5099017;28;20070;-57
2021/12/26 07:13:20;;;;;;;30.65;4.88;;;11.50;80.00;;;;;;5101879;28;20054;-51
2021/12/26 07:15:46;;;;;;;26.38;4.88;;;11.40;80.00;;;;;;5101807;28;20024;-52
2021/12/26 07:18:12;;;;;;;31.17;5.20;;;11.50;79.90;;;;;;5101562;28;20124;-51
2021/12/26 07:20:38;;;;;;;25.35;4.82;;;11.50;79.70;;;;;;5101351;28;20056;-50
2021/12/26 07:23:04;;;;;;;28.38;5.43;;;11.50;79.80;;;;;;5101816;28;20094;-51
2021/12/26 07:25:30;;;;;;;25.00;4.40;;;11.50;79.90;;;;;;5101232;28;20623;-52
2021/12/26 07:27:56;;;;;;;26.55;4.85;;;11.40;80.10;;;;;;5101270;28;20046;-53
2021/12/26 07:30:22;;;;;;;21.58;3.58;;;11.50;80.00;;;;;;5101000;28;20031;-51
2021/12/26 07:32:48;;;;;;;22.60;4.03;;;11.40;80.00;;;;;;5101177;28;20028;-51
2021/12/26 07:35:13;;;;;;;25.75;5.10;;;11.50;80.00;;;;;;5101138;28;20103;-50
2021/12/26 07:37:40;;;;;;;33.42;4.78;;;11.40;80.20;;;;;;5101669;28;20031;-51
2021/12/26 07:40:06;;;;;;;22.15;5.63;;;11.40;80.20;;;;;;5101081;28;20054;-52
2021/12/26 07:42:32;;;;;;;25.42;4.82;;;11.50;80.00;;;;;;5100681;28;20031;-47
2021/12/26 07:44:58;;;;;;;25.00;4.90;;;11.50;80.00;;;;;;5101016;28;20471;-53
2021/12/26 07:47:24;;;;;;;32.30;5.43;;;11.50;80.00;;;;;;5101141;28;20036;-48
2021/12/26 07:49:50;;;;;;;31.90;5.85;;;11.50;80.40;;;;;;5100863;28;20376;-50
2021/12/26 07:52:20;;;;;;;27.27;5.40;;;11.50;80.30;;;;;;5101031;28;20016;-48
2021/12/26 07:54:46;;;;;;;29.10;4.85;;;11.50;80.40;;;;;;5100876;28;20019;-51
2021/12/26 07:57:13;;;;;;;19.48;4.85;;;11.50;80.40;;;;;;5101061;28;20028;-49
2021/12/26 07:59:40;;;;;;;37.25;5.78;;;11.50;80.30;;;;;;5100663;28;20027;-47
2021/12/26 08:02:06;;;;;;;26.40;4.28;;;11.50;80.30;;;;;;5099369;28;20028;-48
2021/12/26 08:04:32;;;;;;;26.80;5.43;;;11.50;80.40;;;;;;5100621;28;20027;-50
2021/12/26 08:06:59;;;;;;;22.95;4.85;;;11.50;80.30;;;;;;5100569;28;20032;-50
2021/12/26 08:09:25;;;;;;;26.55;4.90;;;11.40;80.20;;;;;;5100618;28;20073;-47
2021/12/26 08:11:51;;;;;;;31.20;5.05;;;11.50;80.30;;;;;;5100671;28;20024;-49
2021/12/26 08:14:17;;;;;;;28.60;4.18;;;11.40;80.30;;;;;;5100604;28;20100;-48
2021/12/26 08:16:43;;;;;;;23.95;4.82;;;11.40;80.40;;;;;;5100199;28;20056;-52
2021/12/26 08:19:09;;;;;;;33.20;6.65;;;11.40;80.40;;;;;;5100324;28;20048;-49
2021/12/26 08:21:35;;;;;;;25.13;4.65;;;11.40;80.50;;;;;;5100104;28;20024;-50
2021/12/26 08:24:03;;;;;;;29.60;5.60;;;11.40;80.40;;;;;;5099301;28;20080;-52
2021/12/26 08:26:32;;;;;;;39.40;6.85;;;11.40;80.50;;;;;;5100968;28;20020;-49
2021/12/26 08:28:58;;;;;;;29.92;5.97;;;11.40;80.50;;;;;;5099881;28;20403;-49
2021/12/26 08:31:24;;;;;;;26.55;5.00;;;11.40;80.60;;;;;;5100080;28;20027;-50
2021/12/26 08:33:49;;;;;;;25.33;4.20;;;11.40;80.10;;;;;;5100058;28;20024;-51
2021/12/26 08:36:19;;;;;;;27.67;4.10;;;11.40;80.20;;;;;;5100031;28;20580;-48
2021/12/26 08:38:45;;;;;;;25.30;4.30;;;11.40;80.20;;;;;;5100163;28;20020;-49
2021/12/26 08:41:10;;;;;;;27.48;4.63;;;11.40;80.30;;;;;;5100120;28;20506;-48
2021/12/26 08:43:36;;;;;;;19.35;4.43;;;11.40;80.10;;;;;;5100344;28;20027;-54
2021/12/26 08:46:02;;;;;;;24.67;4.70;;;11.40;80.20;;;;;;5099795;28;20116;-53
2021/12/26 08:48:29;;;;;;;27.15;5.57;;;11.40;80.10;;;;;;5099905;28;20055;-49
2021/12/26 08:50:56;;;;;;;22.55;4.05;;;11.40;80.20;;;;;;5099932;28;20056;-53
2021/12/26 08:53:26;;;;;;;20.00;3.70;;;11.40;80.10;;;;;;5099905;28;20016;-49
2021/12/26 08:55:52;;;;;;;18.10;3.97;;;11.40;79.90;;;;;;5100103;28;20016;-53
2021/12/26 08:58:19;;;;;;;19.33;3.20;;;11.40;79.90;;;;;;5099419;28;20145;-52
2021/12/26 09:00:45;;;;;;;22.35;4.00;;;11.40;79.90;;;;;;5099469;28;20028;-53
2021/12/26 09:03:11;;;;;;;16.83;3.20;;;11.30;79.80;;;;;;5099447;28;20035;-49
2021/12/26 09:05:36;;;;;;;23.95;4.03;;;11.40;79.80;;;;;;5099540;28;20028;-53
2021/12/26 09:08:04;;;;;;;25.17;3.88;;;11.30;79.70;;;;;;5099505;28;20024;-51
2021/12/26 09:10:30;;;;;;;23.48;3.88;;;11.30;80.00;;;;;;5099269;28;20024;-52
2021/12/26 09:12:56;;;;;;;26.80;4.65;;;11.30;80.30;;;;;;5099242;28;20099;-53
2021/12/26 09:15:22;;;;;;;29.48;5.68;;;11.30;80.30;;;;;;5099172;28;20027;-52
2021/12/26 09:17:49;;;;;;;27.70;4.63;;;11.40;80.10;;;;;;5099185;28;20028;-53
2021/12/26 09:20:15;;;;;;;18.13;4.43;;;11.30;80.60;;;;;;5098940;28;20097;-52
2021/12/26 09:22:42;;;;;;;18.15;3.38;;;11.30;80.40;;;;;;5098710;28;20028;-52
2021/12/26 09:25:10;;;;;;;20.58;4.40;;;11.30;79.90;;;;;;5099117;28;20025;-46
2021/12/26 09:27:36;;;;;;;21.58;3.55;;;11.20;79.90;;;;;;5099044;28;20387;-50
2021/12/26 09:30:06;;;;;;;24.52;3.40;;;11.20;80.00;;;;;;5099104;28;20057;-50
2021/12/26 09:32:32;;;;;;;17.30;3.65;;;11.20;80.80;;;;;;5098741;28;20039;-51
2021/12/26 09:34:58;;;;;;;23.63;4.05;;;11.20;80.30;;;;;;5098758;28;20012;-54
2021/12/26 09:37:24;;;;;;;18.95;3.65;;;11.20;80.10;;;;;;5098809;28;20035;-49
2021/12/26 09:39:50;;;;;;;21.15;3.20;;;11.20;80.00;;;;;;5099023;28;20048;-51
2021/12/26 09:42:16;;;;;;;15.45;3.15;;;11.20;79.80;;;;;;5098697;28;20453;-51
2021/12/26 09:44:42;;;;;;;17.65;3.58;;;11.20;79.70;;;;;;5098746;28;20429;-52
2021/12/26 09:47:09;;;;;;;13.52;2.83;;;11.20;79.70;;;;;;5099089;28;20024;-52
2021/12/26 09:49:34;;;;;;;17.20;3.00;;;11.10;79.60;;;;;;5098353;28;20444;-51
2021/12/26 09:52:00;;;;;;;19.88;3.80;;;11.10;79.50;;;;;;5098599;28;20024;-52
2021/12/26 09:54:26;;;;;;;16.20;3.50;;;11.10;79.50;;;;;;5098669;28;20030;-52
2021/12/26 09:56:52;;;;;;;17.15;3.42;;;11.00;79.50;;;;;;5098501;28;20021;-50
2021/12/26 09:59:21;;;;;;;15.73;2.75;;;11.10;79.50;;;;;;5098634;28;20020;-53
2021/12/26 10:01:56;;;;;;;14.15;3.30;;;11.00;79.40;;;;;;5098568;28;20111;-52
2021/12/26 10:04:28;;;;;;;17.80;3.83;;;11.00;79.40;;;;;;5098388;28;20492;-53
2021/12/26 10:07:09;;;;;;;16.88;3.42;;;11.00;79.50;;;;;;5097531;28;20074;-51
2021/12/26 10:09:39;;;;;;;10.63;2.33;;;11.00;79.50;;;;;;5097967;28;20479;-54
2021/12/26 10:12:06;;;;;;;13.05;2.95;;;11.00;79.50;;;;;;5098322;28;20039;-50
2021/12/26 10:14:34;;;;;;;13.55;2.35;;;11.00;79.50;;;;;;5098221;28;20020;-54
2021/12/26 10:17:03;;;;;;;11.68;2.03;;;11.00;79.30;;;;;;5098128;28;20422;-53
2021/12/26 10:19:38;;;;;;;13.45;2.70;;;11.00;79.30;;;;;;5097466;28;20093;-50
2021/12/26 10:22:05;;;;;;;13.50;2.83;;;11.00;79.30;;;;;;5097818;28;20032;-51
2021/12/26 10:24:33;;;;;;;14.63;3.08;;;11.00;79.40;;;;;;5098017;28;20024;-47
2021/12/26 10:26:59;;;;;;;16.08;3.15;;;11.00;79.50;;;;;;5097649;28;20035;-51
2021/12/26 10:29:33;;;;;;;19.00;3.38;;;11.00;79.60;;;;;;5097533;28;20060;-52
2021/12/26 10:32:19;;;;;;;;;;;11.10;79.60;;;;;;5097827;28;20391;-50
2021/12/26 10:34:50;;;;;;;13.57;2.13;;;11.10;79.90;;;;;;5097740;28;19904;-51
2021/12/26 10:37:22;;;;;;;10.60;2.20;;;11.30;80.40;;;;;;5097288;28;20031;-50
2021/12/26 10:40:00;;;;;;;9.68;2.33;;;11.50;80.20;;;;;;5097726;28;20028;-52
2021/12/26 10:42:31;;;;;;;11.07;1.90;;;11.60;80.00;;;;;;5096160;28;20401;-49
2021/12/26 10:45:03;;;;;;;9.70;1.85;;;11.70;79.80;;;;;;5097383;28;20498;-54
2021/12/26 10:47:32;;;;;;;11.02;2.20;;;11.90;80.40;;;;;;5098046;28;20463;-53
2021/12/26 10:50:09;;;;;;;13.68;2.22;;;12.30;80.60;;;;;;5097970;28;20418;-52
2021/12/26 10:52:58;;;;;;;10.32;1.80;;;12.60;80.00;;;;;;5097561;28;20070;-52
2021/12/26 10:55:37;;;;;;;6.25;1.67;;;12.60;79.20;;;;;;5098148;28;20020;-50
2021/12/26 10:58:06;;;;;;;13.80;2.42;;;12.60;79.30;;;;;;5097913;28;20024;-53
2021/12/26 11:00:37;;;;;;;12.18;2.80;;;12.50;79.10;;;;;;5097691;28;20383;-51
2021/12/26 11:03:10;;;;;;;9.73;2.42;;;12.50;79.10;;;;;;5098161;28;20030;-53
2021/12/26 11:05:41;;;;;;;13.52;2.83;;;12.50;79.10;;;;;;5098181;28;20024;-50
2021/12/26 11:08:24;;;;;;;13.55;3.17;;;12.50;79.20;;;;;;5097644;28;20028;-52
2021/12/26 11:10:54;;;;;;;15.15;3.03;;;12.50;79.30;;;;;;5097295;28;20100;-48
2021/12/26 11:13:21;;;;;;;12.00;2.08;;;12.50;79.90;;;;;;5097774;28;20032;-54
2021/12/26 11:15:48;;;;;;;15.10;3.78;;;12.50;79.50;;;;;;5097750;28;20107;-50
2021/12/26 11:18:19;;;;;;;11.73;2.60;;;12.60;79.60;;;;;;5097531;28;20499;-47
2021/12/26 11:20:53;;;;;;;12.70;3.25;;;12.60;79.60;;;;;;5097264;28;20052;-54
2021/12/26 11:23:31;;;;;;;11.45;2.80;;;12.60;79.70;;;;;;5097686;28;20051;-53
2021/12/26 11:26:01;;;;;;;18.35;4.93;;;12.70;79.60;;;;;;5097634;28;20386;-52
2021/12/26 11:28:30;;;;;;;17.05;3.45;;;12.70;79.50;;;;;;5097646;28;20021;-53
2021/12/26 11:31:00;;;;;;;17.58;3.78;;;12.80;79.50;;;;;;5097502;28;20031;-50
2021/12/26 11:33:27;;;;;;;16.58;3.72;;;12.80;79.50;;;;;;5097632;28;20365;-53
2021/12/26 11:35:54;;;;;;;18.08;4.65;;;13.00;79.50;;;;;;5097572;28;20027;-50
2021/12/26 11:38:22;;;;;;;24.05;4.07;;;13.20;79.60;;;;;;5097123;28;20016;-53
2021/12/26 11:41:05;;;;;;;22.23;4.43;;;13.70;80.00;;;;;;5097523;28;20024;-52
2021/12/26 11:43:52;;;;;;;22.98;4.43;;;14.50;79.20;;;;;;5097504;28;20032;-52
2021/12/26 11:46:48;;;;;;;19.42;4.22;;;15.00;78.80;;;;;;5097457;28;20103;-52
2021/12/26 11:50:00;;;;;;;22.48;5.03;;;15.60;78.00;;;;;;5097035;28;20032;-54
2021/12/26 11:53:08;;;;;;;20.08;4.65;;;16.20;76.20;;;;;;5095764;28;20051;-51
2021/12/26 11:56:15;;;;;;;21.58;4.38;;;17.10;76.30;;;;;;5097280;28;20032;-54
2021/12/26 11:58:59;;;;;;;16.10;3.80;;;17.90;72.20;;;;;;5037177;28;20022;-54
2021/12/26 12:01:26;;;;;;;19.40;4.35;;;18.10;70.90;;;;;;5098060;28;20496;-54
2021/12/26 12:04:12;;;;;;;19.23;4.20;;;18.00;70.30;;;;;;5100881;28;20073;-51
2021/12/26 12:06:38;;;;;;;18.55;3.53;;;17.40;70.70;;;;;;5100741;28;20020;-53
2021/12/26 12:09:28;;;;;;;23.70;4.93;;;16.80;71.30;;;;;;5100517;28;20039;-51
2021/12/26 12:12:10;;;;;;;19.55;3.95;;;16.30;71.70;;;;;;5100574;28;20085;-53
2021/12/26 12:14:53;;;;;;;23.88;4.10;;;15.80;72.40;;;;;;5100939;28;20020;-52
2021/12/26 12:17:24;;;;;;;25.13;4.65;;;15.60;74.50;;;;;;5100601;28;20059;-53
2021/12/26 12:20:08;;;;;;;27.48;5.50;;;15.40;74.70;;;;;;5100483;28;20066;-52
2021/12/26 12:22:34;;;;;;;19.25;5.38;;;15.10;72.80;;;;;;5100343;28;20517;-52
2021/12/26 12:25:35;;;;;;;27.23;6.97;;;14.90;74.40;;;;;;5098876;28;20115;-52
2021/12/26 12:28:06;;;;;;;24.58;4.60;;;14.70;74.10;;;;;;5100153;28;20032;-51
2021/12/26 12:30:33;;;;;;;24.77;12.57;;;14.70;75.00;;;;;;5100183;28;20038;-53
2021/12/26 12:33:13;;;;;;;21.90;4.70;;;14.50;74.80;;;;;;5100113;28;20024;-50
2021/12/26 12:35:53;;;;;;;22.25;4.40;;;14.50;75.50;;;;;;5098778;28;20031;-49
2021/12/26 12:38:24;;;;;;;22.10;4.25;;;14.30;74.80;;;;;;5100410;28;20017;-50
2021/12/26 12:40:51;;;;;;;23.63;4.63;;;14.20;74.90;;;;;;5099950;28;20623;-48
2021/12/26 12:43:19;;;;;;;23.85;5.53;;;14.10;75.00;;;;;;5100158;28;20464;-49
2021/12/26 12:48:32;;;;;;;18.02;4.28;;;14.00;75.00;;;;;;5099709;28;20024;-50
2021/12/26 12:51:21;;;;;;;28.83;10.73;;;14.00;75.70;;;;;;5099894;28;20055;-46
2021/12/26 12:53:50;;;;;;;22.05;4.95;;;13.90;75.60;;;;;;5099737;28;20032;-51